< < Back
Terminal Aerodrome Forecast


Current Version              Previous Versions:   1  2  3  4  5  6  7  8  9  

Terminal Aerodrome Forecast

541
FTUS44 KMOB 212300
TAFMOB
TAF
KMOB 212333Z 2200/2224 32004KT P6SM SCT045 BKN200
     FM220200 VRB04KT P6SM SCT030 SCT250=



Latest METAR

281
SAUS80 KWBC 220700
MTRMOB
METAR KMOB 220656Z AUTO 00000KT 9SM OVC080 24/24 A2999 RMK AO2 SLP153
T02440239 TSNO $


USA.gov is the U.S. government's official web portal to all federal, state and local government web resources and services.